createdAt,value
2022-09-21T00:01:17.456Z,99974.16
2022-09-21T00:03:45.291Z,99963.94
2022-09-21T00:06:15.906Z,99972.84
2022-09-21T00:08:43.804Z,99963.94
2022-09-21T00:11:15.843Z,99974.97
2022-09-21T00:13:43.265Z,99971.56
2022-09-21T00:16:10.319Z,99974.97
2022-09-21T00:18:37.165Z,99972.34
2022-09-21T00:21:13.244Z,99965.00
2022-09-21T00:23:40.112Z,99981.53
2022-09-21T00:26:14.014Z,99978.91
2022-09-21T00:28:41.472Z,99979.19
2022-09-21T00:31:11.936Z,99980.22
2022-09-21T00:33:40.136Z,99988.34
2022-09-21T00:36:10.327Z,99978.09
2022-09-21T00:38:37.556Z,99975.75
2022-09-21T00:41:06.855Z,99979.94
2022-09-21T00:43:36.263Z,99976.50
2022-09-21T00:46:30.476Z,99983.06
2022-09-21T00:48:58.526Z,99982.03
2022-09-21T00:51:26.166Z,99982.06
2022-09-21T00:53:57.645Z,99983.38
2022-09-21T00:56:24.792Z,99980.47
2022-09-21T00:58:54.750Z,99985.97
2022-09-21T01:01:21.951Z,99986.25
2022-09-21T01:03:52.298Z,99984.69
2022-09-21T01:06:21.168Z,99979.69
2022-09-21T01:08:52.066Z,99990.47
2022-09-21T01:11:27.960Z,99986.53
2022-09-21T01:14:17.740Z,99988.09
2022-09-21T01:16:59.281Z,99986.00
2022-09-21T01:20:00.668Z,99987.31
2022-09-21T01:23:04.757Z,99992.56
2022-09-21T01:25:59.316Z,99987.06
2022-09-21T01:28:29.290Z,99995.19
2022-09-21T01:31:01.190Z,99984.69
2022-09-21T01:33:43.968Z,99985.72
2022-09-21T01:36:17.537Z,99991.53
2022-09-21T01:38:55.575Z,99987.06
2022-09-21T01:41:27.151Z,99993.34
2022-09-21T01:43:59.770Z,99991.00
2022-09-21T01:46:31.000Z,99996.78
2022-09-21T01:49:08.469Z,99994.41
2022-09-21T01:51:39.160Z,99994.66
2022-09-21T01:54:12.782Z,99996.22
2022-09-21T01:56:45.672Z,99996.75
2022-09-21T01:59:22.265Z,99997.28
2022-09-21T02:02:03.801Z,99988.66
2022-09-21T02:04:30.902Z,99992.06
2022-09-21T02:06:57.754Z,99989.94
2022-09-21T02:09:25.491Z,99989.94
2022-09-21T02:11:52.266Z,99992.03
2022-09-21T02:14:22.854Z,99994.41
2022-09-21T02:16:55.660Z,99992.81
2022-09-21T02:19:42.585Z,99991.50
2022-09-21T02:22:27.795Z,99999.63
2022-09-21T02:25:00.138Z,99996.75
2022-09-21T02:27:39.925Z,99996.72
2022-09-21T02:30:15.812Z,100001.97
2022-09-21T02:33:04.238Z,100000.69
2022-09-21T02:35:43.577Z,100002.50
2022-09-21T02:38:16.454Z,99999.91
2022-09-21T02:41:23.465Z,100003.31
2022-09-21T02:44:01.248Z,100012.22
2022-09-21T02:47:01.371Z,100010.66
2022-09-21T02:49:34.517Z,100003.84
2022-09-21T02:52:06.573Z,100015.91
2022-09-21T02:54:35.613Z,100003.84
2022-09-21T02:57:02.898Z,100011.72
2022-09-21T02:59:29.979Z,100011.72
2022-09-21T03:01:57.011Z,100011.44
2022-09-21T03:04:24.665Z,100014.34
2022-09-21T03:06:51.517Z,100018.75
2022-09-21T03:09:18.374Z,100021.13
2022-09-21T03:11:45.148Z,100026.38
2022-09-21T03:14:11.902Z,100025.31
2022-09-21T03:16:40.182Z,100024.28
2022-09-21T03:19:06.992Z,100027.16
2022-09-21T03:21:33.758Z,100027.16
2022-09-21T03:24:00.604Z,100032.41
2022-09-21T03:26:27.356Z,100034.72
2022-09-21T03:28:54.403Z,100036.31
2022-09-21T03:31:21.766Z,100028.94
2022-09-21T03:33:48.562Z,100032.91
2022-09-21T03:36:15.442Z,100025.56
2022-09-21T03:38:42.363Z,100035.25
2022-09-21T03:41:09.221Z,100028.97
2022-09-21T03:43:36.172Z,100035.53
2022-09-21T03:46:02.961Z,100039.22
2022-09-21T03:48:29.775Z,100043.38
2022-09-21T03:50:57.413Z,100041.03
2022-09-21T03:53:24.248Z,100054.69
2022-09-21T03:55:51.025Z,100051.03
2022-09-21T03:58:17.835Z,100054.44
2022-09-21T04:00:44.605Z,100060.75
2022-09-21T04:03:11.467Z,100055.78
2022-09-21T04:05:39.456Z,100057.63
2022-09-21T04:08:06.260Z,100057.13
2022-09-21T04:10:33.059Z,100068.91
2022-09-21T04:13:03.956Z,100070.47
2022-09-21T04:15:31.326Z,100070.22
2022-09-21T04:17:58.675Z,100064.69
2022-09-21T04:20:25.526Z,100068.91
2022-09-21T04:22:52.339Z,100071.78
2022-09-21T04:25:19.677Z,100073.88
2022-09-21T04:27:46.527Z,100080.19
2022-09-21T04:30:15.932Z,100077.81
2022-09-21T04:32:43.190Z,100087.81
2022-09-21T04:35:12.838Z,100090.44
2022-09-21T04:37:39.658Z,100095.66
2022-09-21T04:40:07.179Z,100092.50
2022-09-21T04:42:34.071Z,100094.63
2022-09-21T04:45:00.868Z,100094.59
2022-09-21T04:47:30.394Z,100093.28
2022-09-21T04:49:57.350Z,100093.03
2022-09-21T04:52:24.163Z,100099.06
2022-09-21T04:54:50.878Z,100101.69
2022-09-21T04:57:17.660Z,100102.22
2022-09-21T04:59:44.361Z,100093.56
2022-09-21T05:02:11.142Z,100106.44
2022-09-21T05:04:37.903Z,100098.53
2022-09-21T05:07:04.757Z,100099.84
2022-09-21T05:09:31.442Z,100097.25
2022-09-21T05:11:58.393Z,100100.38
2022-09-21T05:14:25.132Z,100100.91
2022-09-21T05:16:51.994Z,100092.00
2022-09-21T05:19:18.805Z,100098.28
2022-09-21T05:21:45.602Z,100105.09
2022-09-21T05:24:12.352Z,100099.84
2022-09-21T05:26:39.272Z,100104.59
2022-09-21T05:29:06.412Z,100097.25
2022-09-21T05:31:46.216Z,100100.94
2022-09-21T05:34:36.653Z,100099.34
2022-09-21T05:37:25.065Z,100101.97
2022-09-21T05:39:52.026Z,100104.34
2022-09-21T05:42:19.183Z,100111.16
2022-09-21T05:44:46.234Z,100114.03
2022-09-21T05:47:34.466Z,100116.66
2022-09-21T05:50:19.725Z,100120.59
2022-09-21T05:53:10.965Z,100119.00
2022-09-21T05:55:49.698Z,100134.72
2022-09-21T05:58:34.552Z,100131.06
2022-09-21T06:01:20.047Z,100121.31
2022-09-21T06:03:47.276Z,100123.66
2022-09-21T06:06:14.080Z,100124.97
2022-09-21T06:08:40.837Z,100123.09
2022-09-21T06:11:07.519Z,100124.38
2022-09-21T06:13:34.271Z,100124.34
2022-09-21T06:16:05.037Z,100122.25
2022-09-21T06:18:31.829Z,100135.09
2022-09-21T06:20:58.615Z,100136.66
2022-09-21T06:23:25.382Z,100134.81
2022-09-21T06:25:57.542Z,100136.41
2022-09-21T06:28:25.682Z,100139.56
2022-09-21T06:30:54.586Z,100146.16
2022-09-21T06:33:21.579Z,100152.72
2022-09-21T06:35:59.552Z,100151.38
2022-09-21T06:38:28.254Z,100150.09
2022-09-21T06:40:55.853Z,100150.13
2022-09-21T06:43:22.702Z,100155.63
2022-09-21T06:45:57.454Z,100163.25
2022-09-21T06:48:25.303Z,100170.59
2022-09-21T06:50:52.054Z,100164.56
2022-09-21T06:53:18.764Z,100168.50
2022-09-21T06:55:45.542Z,100163.50
2022-09-21T06:58:12.323Z,100174.28
2022-09-21T07:00:39.082Z,100174.78
2022-09-21T07:03:05.855Z,100171.38
2022-09-21T07:05:33.444Z,100174.78
2022-09-21T07:08:00.436Z,100176.88
2022-09-21T07:10:28.387Z,100176.09
2022-09-21T07:12:55.606Z,100187.63
2022-09-21T07:15:22.529Z,100186.06
2022-09-21T07:17:52.204Z,100181.84
2022-09-21T07:20:19.571Z,100192.09
2022-09-21T07:22:46.394Z,100188.41
2022-09-21T07:25:14.037Z,100186.56
2022-09-21T07:27:41.326Z,100197.31
2022-09-21T07:32:59.658Z,100193.38
2022-09-21T07:35:26.435Z,100186.78
2022-09-21T07:37:53.267Z,100194.59
2022-09-21T07:40:24.879Z,100189.84
2022-09-21T07:42:52.141Z,100192.41
2022-09-21T07:45:19.137Z,100179.75
2022-09-21T07:47:47.742Z,100188.38
2022-09-21T07:50:14.494Z,100194.97
2022-09-21T07:52:41.249Z,100198.13
2022-09-21T07:55:08.312Z,100193.66
2022-09-21T07:57:35.026Z,100203.38
2022-09-21T08:00:02.138Z,100209.19
2022-09-21T08:02:40.895Z,100202.41
2022-09-21T08:05:10.773Z,100199.25
2022-09-21T08:07:37.752Z,100212.91
2022-09-21T08:10:04.842Z,100203.44
2022-09-21T08:12:31.589Z,100202.91
2022-09-21T08:14:58.338Z,100202.13
2022-09-21T08:17:25.087Z,100204.69
2022-09-21T08:19:51.820Z,100202.97
2022-09-21T08:22:18.549Z,100202.91
2022-09-21T08:24:45.296Z,100209.16
2022-09-21T08:27:12.020Z,100213.25
2022-09-21T08:29:38.750Z,100213.03
2022-09-21T08:32:05.688Z,100211.41
2022-09-21T08:34:32.430Z,100209.72
2022-09-21T08:36:59.199Z,100213.19
2022-09-21T08:39:25.954Z,100204.97
2022-09-21T08:42:50.125Z,100202.22
2022-09-21T08:45:19.955Z,100198.72
2022-09-21T08:47:59.877Z,100202.22
2022-09-21T08:50:32.194Z,100200.84
2022-09-21T08:53:05.300Z,100193.28
2022-09-21T08:55:32.256Z,100204.63
2022-09-21T08:57:59.722Z,100196.38
2022-09-21T09:00:28.087Z,100192.06
2022-09-21T09:03:44.474Z,100188.31
2022-09-21T09:06:46.149Z,100179.13
2022-09-21T09:09:52.869Z,100183.84
2022-09-21T09:12:48.641Z,100187.56
2022-09-21T09:15:36.582Z,100193.06
2022-09-21T09:18:18.371Z,100184.38
2022-09-21T09:20:57.188Z,100181.06
2022-09-21T09:23:37.712Z,100181.00
2022-09-21T09:26:18.320Z,100183.25
2022-09-21T09:28:57.242Z,100182.94
2022-09-21T09:31:35.451Z,100177.69
2022-09-21T09:34:18.375Z,100187.00
2022-09-21T09:36:59.202Z,100183.59
2022-09-21T09:39:29.641Z,100180.75
2022-09-21T09:41:59.200Z,100185.16
2022-09-21T09:44:55.746Z,100190.25
2022-09-21T09:47:41.098Z,100178.72
2022-09-21T09:50:16.572Z,100179.56
2022-09-21T09:52:44.230Z,100175.84
2022-09-21T09:55:25.115Z,100173.72
2022-09-21T09:57:54.977Z,100176.56
2022-09-21T10:00:22.463Z,100179.78
2022-09-21T10:02:55.128Z,100172.69
2022-09-21T10:05:25.199Z,100183.25
2022-09-21T10:07:52.908Z,100177.97
2022-09-21T10:10:36.638Z,100173.72
2022-09-21T10:13:15.528Z,100168.84
2022-09-21T10:16:11.598Z,100166.13
2022-09-21T10:18:38.441Z,100162.03
2022-09-21T10:21:16.843Z,100162.25
2022-09-21T10:23:51.800Z,100156.19
2022-09-21T10:26:20.044Z,100158.31
2022-09-21T10:29:01.222Z,100162.06
2022-09-21T10:31:31.497Z,100161.16
2022-09-21T10:34:04.482Z,100157.53
2022-09-21T10:36:37.003Z,100160.38
2022-09-21T10:39:20.096Z,100159.13
2022-09-21T10:41:53.181Z,100163.81
2022-09-21T10:44:23.738Z,100156.75
2022-09-21T10:46:51.282Z,100154.81
2022-09-21T10:49:28.245Z,100145.53
2022-09-21T10:51:58.961Z,100150.38
2022-09-21T10:54:33.568Z,100145.78
2022-09-21T10:57:04.392Z,100155.88
2022-09-21T10:59:33.899Z,100151.84
2022-09-21T11:02:04.830Z,100150.38
2022-09-21T11:04:41.639Z,100158.28
2022-09-21T11:07:21.794Z,100159.44
2022-09-21T11:09:55.342Z,100153.84
2022-09-21T11:12:38.371Z,100159.94
2022-09-21T11:15:23.851Z,100157.75
2022-09-21T11:18:10.292Z,100160.69
2022-09-21T11:20:41.863Z,100162.63
2022-09-21T11:23:31.968Z,100157.63
2022-09-21T11:26:09.746Z,100156.56
2022-09-21T11:29:09.711Z,100149.72
2022-09-21T11:31:51.397Z,100146.03
2022-09-21T11:34:24.267Z,100140.47
2022-09-21T11:37:02.976Z,100138.34
2022-09-21T11:39:59.790Z,100135.72
2022-09-21T11:42:48.828Z,100122.91
2022-09-21T11:45:34.384Z,100135.34
2022-09-21T11:48:16.497Z,100136.19
2022-09-21T11:50:54.699Z,100133.16
2022-09-21T11:53:39.471Z,100132.59
2022-09-21T11:56:35.502Z,100136.91
2022-09-21T11:59:13.614Z,100131.13
2022-09-21T12:02:06.093Z,100135.13
2022-09-21T12:04:41.820Z,100126.91
2022-09-21T12:07:25.932Z,100126.03
2022-09-21T12:10:20.331Z,100127.34
2022-09-21T12:13:01.731Z,100123.81
2022-09-21T12:16:02.295Z,100111.63
2022-09-21T12:18:46.934Z,100112.78
2022-09-21T12:21:20.599Z,100114.56
2022-09-21T12:24:02.135Z,100109.09
2022-09-21T12:26:46.529Z,100117.31
2022-09-21T12:29:28.732Z,100115.66
2022-09-21T12:32:10.438Z,100114.53
2022-09-21T12:34:49.688Z,100115.41
2022-09-21T12:37:21.998Z,100113.03
2022-09-21T12:40:02.871Z,100117.88
2022-09-21T12:42:44.952Z,100111.38
2022-09-21T12:45:25.672Z,100114.63
2022-09-21T12:48:20.490Z,100107.94
2022-09-21T12:50:56.171Z,100093.72
2022-09-21T12:53:27.371Z,100095.94
2022-09-21T12:56:04.444Z,100094.44
2022-09-21T12:58:56.716Z,100087.28
2022-09-21T13:01:42.221Z,100088.00
2022-09-21T13:04:08.993Z,100092.09
2022-09-21T13:07:12.884Z,100088.25
2022-09-21T13:09:42.345Z,100085.00
2022-09-21T13:12:11.550Z,100088.91
2022-09-21T13:14:52.511Z,100076.63
2022-09-21T13:17:26.681Z,100074.59
2022-09-21T13:20:01.072Z,100078.84
2022-09-21T13:22:32.185Z,100078.28
2022-09-21T13:25:07.587Z,100081.00
2022-09-21T13:28:00.827Z,100073.59
2022-09-21T13:30:43.064Z,100071.75
2022-09-21T13:33:18.909Z,100064.72
2022-09-21T13:35:48.425Z,100065.66
2022-09-21T13:38:53.770Z,100073.53
2022-09-21T13:41:45.557Z,100074.59
2022-09-21T13:44:36.110Z,100071.75
2022-09-21T13:47:03.685Z,100064.97
2022-09-21T13:49:42.027Z,100078.47
2022-09-21T13:52:15.730Z,100064.56
2022-09-21T13:55:01.157Z,100061.25
2022-09-21T13:57:31.007Z,100067.81
2022-09-21T14:00:29.120Z,100058.34
2022-09-21T14:03:18.013Z,100057.16
2022-09-21T14:05:48.308Z,100057.66
2022-09-21T14:08:16.353Z,100050.91
2022-09-21T14:10:58.201Z,100049.81
2022-09-21T14:13:40.355Z,100048.00
2022-09-21T14:16:32.141Z,100050.28
2022-09-21T14:19:04.741Z,100054.81
2022-09-21T14:21:32.457Z,100056.69
2022-09-21T14:24:21.999Z,100054.03
2022-09-21T14:27:13.130Z,100049.66
2022-09-21T14:29:51.779Z,100043.75
2022-09-21T14:32:22.863Z,100047.78
2022-09-21T14:34:54.881Z,100046.22
2022-09-21T14:37:38.090Z,100047.66
2022-09-21T14:40:23.297Z,100045.72
2022-09-21T14:42:51.341Z,100052.47
2022-09-21T14:45:20.486Z,100055.59
2022-09-21T14:47:56.432Z,100047.66
2022-09-21T14:50:24.657Z,100048.91
2022-09-21T14:52:54.828Z,100054.16
2022-09-21T14:55:40.953Z,100052.09
2022-09-21T14:58:44.296Z,100056.50
2022-09-21T15:01:32.876Z,100050.72
2022-09-21T15:04:18.081Z,100058.00
2022-09-21T15:07:15.536Z,100049.66
2022-09-21T15:10:30.497Z,100053.72
2022-09-21T15:12:59.800Z,100058.16
2022-09-21T15:16:07.226Z,100055.53
2022-09-21T15:18:40.144Z,100061.41
2022-09-21T15:21:20.563Z,100054.25
2022-09-21T15:23:47.366Z,100053.16
2022-09-21T15:26:18.942Z,100058.63
2022-09-21T15:29:08.282Z,100058.44
2022-09-21T15:31:37.731Z,100047.50
2022-09-21T15:34:09.674Z,100055.53
2022-09-21T15:36:42.049Z,100054.06
2022-09-21T15:39:25.967Z,100043.59
2022-09-21T15:42:17.835Z,100055.81
2022-09-21T15:44:46.349Z,100051.75
2022-09-21T15:47:13.612Z,100049.69
2022-09-21T15:49:41.944Z,100046.09
2022-09-21T15:52:14.875Z,100049.59
2022-09-21T15:54:48.797Z,100049.78
2022-09-21T15:57:37.124Z,100049.97
2022-09-21T16:00:17.218Z,100050.34
2022-09-21T16:03:17.058Z,100057.88
2022-09-21T16:05:52.570Z,100062.09
2022-09-21T16:08:33.680Z,100057.59
2022-09-21T16:11:24.991Z,100061.31
2022-09-21T16:14:14.969Z,100062.69
2022-09-21T16:17:09.430Z,100063.75
2022-09-21T16:19:56.087Z,100059.94
2022-09-21T16:22:43.481Z,100058.91
2022-09-21T16:25:24.140Z,100066.34
2022-09-21T16:27:57.175Z,100065.28
2022-09-21T16:30:42.316Z,100066.63
2022-09-21T16:33:41.545Z,100066.84
2022-09-21T16:36:17.596Z,100070.63
2022-09-21T16:38:44.712Z,100075.25
2022-09-21T16:41:11.556Z,100065.16
2022-09-21T16:43:38.375Z,100075.03
2022-09-21T16:46:05.374Z,100074.13
2022-09-21T16:48:32.204Z,100076.88
2022-09-21T16:50:59.223Z,100075.19
2022-09-21T16:53:26.314Z,100087.69
2022-09-21T16:55:56.520Z,100083.06
2022-09-21T16:58:23.397Z,100081.31
2022-09-21T17:00:55.933Z,100078.72
2022-09-21T17:03:23.406Z,100083.91
2022-09-21T17:05:50.976Z,100082.09
2022-09-21T17:08:17.967Z,100090.28
2022-09-21T17:10:45.848Z,100084.59
2022-09-21T17:13:13.291Z,100086.53
2022-09-21T17:15:47.411Z,100082.41
2022-09-21T17:18:14.332Z,100080.84
2022-09-21T17:20:43.921Z,100089.00
2022-09-21T17:23:11.240Z,100094.66
2022-09-21T17:25:38.261Z,100092.78
2022-09-21T17:28:14.622Z,100101.03
2022-09-21T17:30:41.483Z,100106.09
2022-09-21T17:33:10.635Z,100111.75
2022-09-21T17:35:39.974Z,100115.72
2022-09-21T17:38:12.423Z,100113.09
2022-09-21T17:40:42.169Z,100109.47
2022-09-21T17:43:47.564Z,100113.97
2022-09-21T17:46:28.076Z,100121.34
2022-09-21T17:48:55.134Z,100116.06
2022-09-21T17:51:22.283Z,100123.75
2022-09-21T17:53:49.237Z,100123.84
2022-09-21T17:56:45.136Z,100114.34
2022-09-21T17:59:36.626Z,100116.97
2022-09-21T18:02:19.299Z,100117.84
2022-09-21T18:04:47.565Z,100114.63
2022-09-21T18:07:14.658Z,100113.91
2022-09-21T18:09:41.677Z,100115.31
2022-09-21T18:12:47.737Z,100115.09
2022-09-21T18:15:44.520Z,100116.88
2022-09-21T18:18:40.679Z,100108.97
2022-09-21T18:21:21.522Z,100111.59
2022-09-21T18:24:10.659Z,100118.16
2022-09-21T18:26:37.727Z,100121.09
2022-09-21T18:29:22.521Z,100130.63
2022-09-21T18:32:18.089Z,100123.22
2022-09-21T18:35:21.291Z,100125.59
2022-09-21T18:38:15.504Z,100134.09
2022-09-21T18:41:03.891Z,100137.78
2022-09-21T18:44:03.338Z,100134.66
2022-09-21T18:46:33.053Z,100139.19
2022-09-21T18:49:22.875Z,100143.16
2022-09-21T18:52:05.077Z,100135.03
2022-09-21T18:54:32.342Z,100139.59
2022-09-21T18:56:59.434Z,100137.75
2022-09-21T18:59:31.046Z,100142.22
2022-09-21T19:01:59.061Z,100145.41
2022-09-21T19:04:26.473Z,100149.09
2022-09-21T19:07:11.390Z,100150.91
2022-09-21T19:09:49.564Z,100146.44
2022-09-21T19:12:35.596Z,100146.19
2022-09-21T19:15:36.442Z,100158.84
2022-09-21T19:18:16.589Z,100156.22
2022-09-21T19:20:59.613Z,100154.13
2022-09-21T19:23:58.630Z,100148.63
2022-09-21T19:26:47.257Z,100156.03
2022-09-21T19:29:50.535Z,100161.56
2022-09-21T19:32:25.208Z,100155.50
2022-09-21T19:34:53.740Z,100159.41
2022-09-21T19:37:20.699Z,100161.75
2022-09-21T19:39:47.737Z,100167.03
2022-09-21T19:43:03.999Z,100156.75
2022-09-21T19:45:42.824Z,100162.09
2022-09-21T19:48:14.961Z,100158.66
2022-09-21T19:50:56.318Z,100162.31
2022-09-21T19:53:23.533Z,100162.38
2022-09-21T19:55:50.348Z,100155.03
2022-09-21T19:58:17.411Z,100148.75
2022-09-21T20:00:46.479Z,100151.38
2022-09-21T20:03:20.249Z,100156.13
2022-09-21T20:05:55.661Z,100147.78
2022-09-21T20:08:30.640Z,100152.56
2022-09-21T20:11:15.268Z,100151.03
2022-09-21T20:13:50.686Z,100153.94
2022-09-21T20:16:39.076Z,100151.88
2022-09-21T20:19:14.850Z,100159.50
2022-09-21T20:21:44.054Z,100156.88
2022-09-21T20:24:16.932Z,100161.91
2022-09-21T20:26:44.764Z,100161.69
2022-09-21T20:29:11.732Z,100162.25
2022-09-21T20:31:38.532Z,100164.06
2022-09-21T20:34:05.249Z,100167.28
2022-09-21T20:36:32.006Z,100159.38
2022-09-21T20:38:59.384Z,100158.34
2022-09-21T20:41:26.288Z,100156.75
2022-09-21T20:43:53.231Z,100157.84
2022-09-21T20:46:20.108Z,100158.91
2022-09-21T20:48:47.074Z,100154.97
2022-09-21T20:51:13.781Z,100161.84
2022-09-21T20:53:40.706Z,100161.06
2022-09-21T20:56:07.465Z,100169.19
2022-09-21T20:58:34.207Z,100165.00
2022-09-21T21:01:05.947Z,100168.41
2022-09-21T21:03:33.183Z,100173.72
2022-09-21T21:06:14.895Z,100165.59
2022-09-21T21:08:41.756Z,100172.16
2022-09-21T21:11:08.505Z,100170.34
2022-09-21T21:13:35.485Z,100173.00
2022-09-21T21:16:02.629Z,100162.47
2022-09-21T21:18:29.487Z,100167.44
2022-09-21T21:21:00.292Z,100168.22
2022-09-21T21:23:26.991Z,100167.72
2022-09-21T21:25:53.788Z,100165.34
2022-09-21T21:28:20.516Z,100154.88
2022-09-21T21:30:54.965Z,100163.81
2022-09-21T21:33:21.685Z,100165.16
2022-09-21T21:35:48.494Z,100157.84
2022-09-21T21:38:15.237Z,100155.22
2022-09-21T21:40:42.317Z,100146.31
2022-09-21T21:43:09.168Z,100152.38
2022-09-21T21:45:35.981Z,100148.97
2022-09-21T21:48:02.760Z,100137.44
2022-09-21T21:50:31.216Z,100147.16
2022-09-21T21:52:59.773Z,100150.84
2022-09-21T21:55:26.480Z,100153.75
2022-09-21T21:57:53.292Z,100144.53
2022-09-21T22:00:20.114Z,100147.16
2022-09-21T22:02:46.924Z,100140.06
2022-09-21T22:05:13.663Z,100147.94
2022-09-21T22:07:40.442Z,100145.31
2022-09-21T22:10:07.772Z,100150.09
2022-09-21T22:12:34.797Z,100148.78
2022-09-21T22:15:01.865Z,100149.56
2022-09-21T22:17:28.672Z,100150.09
2022-09-21T22:19:55.397Z,100152.97
2022-09-21T22:22:22.169Z,100156.94
2022-09-21T22:24:49.166Z,100159.56
2022-09-21T22:27:16.563Z,100151.69
2022-09-21T22:29:43.360Z,100153.50
2022-09-21T22:32:10.124Z,100146.97
2022-09-21T22:34:36.955Z,100149.56
2022-09-21T22:37:03.712Z,100147.44
2022-09-21T22:39:30.618Z,100139.03
2022-09-21T22:41:57.431Z,100142.44
2022-09-21T22:44:24.195Z,100146.69
2022-09-21T22:46:50.938Z,100136.16
2022-09-21T22:49:17.781Z,100136.66
2022-09-21T22:51:44.496Z,100126.94
2022-09-21T22:54:11.226Z,100126.94
2022-09-21T22:56:37.987Z,100122.22
2022-09-21T22:59:05.118Z,100118.31
2022-09-21T23:01:37.862Z,100117.53
2022-09-21T23:04:08.431Z,100117.81
2022-09-21T23:06:38.189Z,100113.38
2022-09-21T23:09:08.133Z,100112.88
2022-09-21T23:11:39.149Z,100107.63
2022-09-21T23:14:06.249Z,100106.84
2022-09-21T23:16:33.037Z,100104.47
2022-09-21T23:19:00.439Z,100114.72
2022-09-21T23:21:29.660Z,100108.69
2022-09-21T23:23:58.840Z,100110.78
2022-09-21T23:26:26.511Z,100106.59
2022-09-21T23:28:56.595Z,100110.00
2022-09-21T23:31:24.747Z,100110.78
2022-09-21T23:33:53.218Z,100113.66
2022-09-21T23:36:23.369Z,100117.59
2022-09-21T23:38:51.082Z,100117.56
2022-09-21T23:41:26.229Z,100113.34
2022-09-21T23:43:54.500Z,100107.84
2022-09-21T23:46:26.449Z,100113.34
2022-09-21T23:48:53.682Z,100113.91
2022-09-21T23:51:20.862Z,100108.66
2022-09-21T23:53:48.413Z,100107.09
2022-09-21T23:56:18.609Z,100118.66
2022-09-21T23:58:45.645Z,100118.91
